sensor_id;sensor_type;location;lat;lon;timestamp;temperature;humidity
34145;HTU21D;69555;53.014;8.886;2023-04-24T00:00:16;11.57;89.23
34145;HTU21D;69555;53.014;8.886;2023-04-24T00:02:43;11.60;88.54
34145;HTU21D;69555;53.014;8.886;2023-04-24T00:05:16;11.64;88.79
34145;HTU21D;69555;53.014;8.886;2023-04-24T00:07:43;11.62;88.71
34145;HTU21D;69555;53.014;8.886;2023-04-24T00:10:11;11.66;88.64
34145;HTU21D;69555;53.014;8.886;2023-04-24T00:12:37;11.57;88.95
34145;HTU21D;69555;53.014;8.886;2023-04-24T00:15:04;11.56;88.67
34145;HTU21D;69555;53.014;8.886;2023-04-24T00:17:30;11.57;88.86
34145;HTU21D;69555;53.014;8.886;2023-04-24T00:19:57;11.59;88.85
34145;HTU21D;69555;53.014;8.886;2023-04-24T00:22:28;11.53;88.73
34145;HTU21D;69555;53.014;8.886;2023-04-24T00:24:54;11.45;88.48
34145;HTU21D;69555;53.014;8.886;2023-04-24T00:27:21;11.48;88.04
34145;HTU21D;69555;53.014;8.886;2023-04-24T00:29:48;11.48;88.40
34145;HTU21D;69555;53.014;8.886;2023-04-24T00:32:14;11.49;88.48
34145;HTU21D;69555;53.014;8.886;2023-04-24T00:34:40;11.52;88.79
34145;HTU21D;69555;53.014;8.886;2023-04-24T00:37:05;11.57;86.94
34145;HTU21D;69555;53.014;8.886;2023-04-24T00:39:31;11.74;85.46
34145;HTU21D;69555;53.014;8.886;2023-04-24T00:41:57;11.79;85.61
34145;HTU21D;69555;53.014;8.886;2023-04-24T00:44:23;11.70;87.05
34145;HTU21D;69555;53.014;8.886;2023-04-24T00:46:50;11.77;86.31
34145;HTU21D;69555;53.014;8.886;2023-04-24T00:49:22;11.71;87.59
34145;HTU21D;69555;53.014;8.886;2023-04-24T00:51:47;11.69;85.71
34145;HTU21D;69555;53.014;8.886;2023-04-24T00:54:15;11.62;85.79
34145;HTU21D;69555;53.014;8.886;2023-04-24T00:56:41;11.58;85.12
34145;HTU21D;69555;53.014;8.886;2023-04-24T00:59:07;11.54;84.77
34145;HTU21D;69555;53.014;8.886;2023-04-24T01:01:34;11.47;85.22
34145;HTU21D;69555;53.014;8.886;2023-04-24T01:04:02;11.39;85.35
34145;HTU21D;69555;53.014;8.886;2023-04-24T01:06:29;11.28;86.12
34145;HTU21D;69555;53.014;8.886;2023-04-24T01:08:57;11.25;85.51
34145;HTU21D;69555;53.014;8.886;2023-04-24T01:11:24;11.15;86.11
34145;HTU21D;69555;53.014;8.886;2023-04-24T01:13:50;11.16;85.39
34145;HTU21D;69555;53.014;8.886;2023-04-24T01:16:17;11.19;85.10
34145;HTU21D;69555;53.014;8.886;2023-04-24T01:18:45;11.22;84.74
34145;HTU21D;69555;53.014;8.886;2023-04-24T01:21:14;11.22;84.79
34145;HTU21D;69555;53.014;8.886;2023-04-24T01:23:40;11.28;83.63
34145;HTU21D;69555;53.014;8.886;2023-04-24T01:26:05;11.28;83.84
34145;HTU21D;69555;53.014;8.886;2023-04-24T01:28:31;11.31;82.37
34145;HTU21D;69555;53.014;8.886;2023-04-24T01:30:56;11.31;83.04
34145;HTU21D;69555;53.014;8.886;2023-04-24T01:33:23;11.34;83.17
34145;HTU21D;69555;53.014;8.886;2023-04-24T01:35:49;11.39;82.68
34145;HTU21D;69555;53.014;8.886;2023-04-24T01:38:15;11.39;82.63
34145;HTU21D;69555;53.014;8.886;2023-04-24T01:40:40;11.43;81.68
34145;HTU21D;69555;53.014;8.886;2023-04-24T01:43:06;11.45;81.23
34145;HTU21D;69555;53.014;8.886;2023-04-24T01:45:32;11.49;81.40
34145;HTU21D;69555;53.014;8.886;2023-04-24T01:48:00;11.49;80.94
34145;HTU21D;69555;53.014;8.886;2023-04-24T01:50:25;11.46;81.18
34145;HTU21D;69555;53.014;8.886;2023-04-24T01:52:51;11.37;81.04
34145;HTU21D;69555;53.014;8.886;2023-04-24T01:55:16;11.28;79.71
34145;HTU21D;69555;53.014;8.886;2023-04-24T01:57:41;11.24;80.64
34145;HTU21D;69555;53.014;8.886;2023-04-24T02:00:09;11.18;81.16
34145;HTU21D;69555;53.014;8.886;2023-04-24T02:02:39;11.15;80.03
34145;HTU21D;69555;53.014;8.886;2023-04-24T02:05:07;11.08;80.46
34145;HTU21D;69555;53.014;8.886;2023-04-24T02:07:32;11.14;80.79
34145;HTU21D;69555;53.014;8.886;2023-04-24T02:09:59;11.17;80.03
34145;HTU21D;69555;53.014;8.886;2023-04-24T02:12:25;11.25;79.72
34145;HTU21D;69555;53.014;8.886;2023-04-24T02:14:50;11.26;78.80
34145;HTU21D;69555;53.014;8.886;2023-04-24T02:17:15;11.31;78.66
34145;HTU21D;69555;53.014;8.886;2023-04-24T02:19:41;11.29;79.89
34145;HTU21D;69555;53.014;8.886;2023-04-24T02:22:08;11.27;79.92
34145;HTU21D;69555;53.014;8.886;2023-04-24T02:24:34;11.24;80.49
34145;HTU21D;69555;53.014;8.886;2023-04-24T02:26:59;11.27;79.88
34145;HTU21D;69555;53.014;8.886;2023-04-24T02:29:25;11.29;79.98
34145;HTU21D;69555;53.014;8.886;2023-04-24T02:31:50;11.22;80.33
34145;HTU21D;69555;53.014;8.886;2023-04-24T02:34:17;11.24;80.34
34145;HTU21D;69555;53.014;8.886;2023-04-24T02:36:44;11.23;80.33
34145;HTU21D;69555;53.014;8.886;2023-04-24T02:39:09;11.29;80.48
34145;HTU21D;69555;53.014;8.886;2023-04-24T02:41:36;11.29;78.75
34145;HTU21D;69555;53.014;8.886;2023-04-24T02:44:03;11.32;79.21
34145;HTU21D;69555;53.014;8.886;2023-04-24T02:46:28;11.30;79.01
34145;HTU21D;69555;53.014;8.886;2023-04-24T02:48:54;11.30;78.65
34145;HTU21D;69555;53.014;8.886;2023-04-24T02:51:19;11.32;78.85
34145;HTU21D;69555;53.014;8.886;2023-04-24T02:53:46;11.30;78.69
34145;HTU21D;69555;53.014;8.886;2023-04-24T02:56:12;11.28;79.33
34145;HTU21D;69555;53.014;8.886;2023-04-24T02:58:39;11.20;79.74
34145;HTU21D;69555;53.014;8.886;2023-04-24T03:01:04;11.24;78.95
34145;HTU21D;69555;53.014;8.886;2023-04-24T03:03:30;11.25;78.62
34145;HTU21D;69555;53.014;8.886;2023-04-24T03:05:55;11.24;77.98
34145;HTU21D;69555;53.014;8.886;2023-04-24T03:08:22;11.25;78.72
34145;HTU21D;69555;53.014;8.886;2023-04-24T03:10:49;11.25;78.22
34145;HTU21D;69555;53.014;8.886;2023-04-24T03:13:16;11.24;78.91
34145;HTU21D;69555;53.014;8.886;2023-04-24T03:15:41;11.22;78.63
34145;HTU21D;69555;53.014;8.886;2023-04-24T03:18:08;11.20;78.02
34145;HTU21D;69555;53.014;8.886;2023-04-24T03:20:34;11.17;78.47
34145;HTU21D;69555;53.014;8.886;2023-04-24T03:22:59;11.18;78.14
34145;HTU21D;69555;53.014;8.886;2023-04-24T03:25:26;11.18;78.30
34145;HTU21D;69555;53.014;8.886;2023-04-24T03:27:52;11.17;78.46
34145;HTU21D;69555;53.014;8.886;2023-04-24T03:30:20;11.14;78.30
34145;HTU21D;69555;53.014;8.886;2023-04-24T03:32:45;11.18;77.98
34145;HTU21D;69555;53.014;8.886;2023-04-24T03:35:11;11.19;77.45
34145;HTU21D;69555;53.014;8.886;2023-04-24T03:37:37;11.16;77.49
34145;HTU21D;69555;53.014;8.886;2023-04-24T03:40:03;11.15;77.54
34145;HTU21D;69555;53.014;8.886;2023-04-24T03:42:30;11.13;77.94
34145;HTU21D;69555;53.014;8.886;2023-04-24T03:44:55;11.16;77.37
34145;HTU21D;69555;53.014;8.886;2023-04-24T03:47:21;11.14;77.51
34145;HTU21D;69555;53.014;8.886;2023-04-24T03:49:46;11.12;76.88
34145;HTU21D;69555;53.014;8.886;2023-04-24T03:52:11;11.11;77.66
34145;HTU21D;69555;53.014;8.886;2023-04-24T03:54:37;11.05;77.42
34145;HTU21D;69555;53.014;8.886;2023-04-24T03:57:03;11.12;77.13
34145;HTU21D;69555;53.014;8.886;2023-04-24T03:59:30;11.10;77.25
34145;HTU21D;69555;53.014;8.886;2023-04-24T04:01:55;11.10;77.10
34145;HTU21D;69555;53.014;8.886;2023-04-24T04:04:21;11.09;76.95
34145;HTU21D;69555;53.014;8.886;2023-04-24T04:06:46;11.13;77.21
34145;HTU21D;69555;53.014;8.886;2023-04-24T04:09:12;11.10;77.53
34145;HTU21D;69555;53.014;8.886;2023-04-24T04:11:38;11.07;78.28
34145;HTU21D;69555;53.014;8.886;2023-04-24T04:14:05;11.01;78.09
34145;HTU21D;69555;53.014;8.886;2023-04-24T04:16:31;11.01;77.78
34145;HTU21D;69555;53.014;8.886;2023-04-24T04:18:56;11.03;78.06
34145;HTU21D;69555;53.014;8.886;2023-04-24T04:21:22;11.07;78.09
34145;HTU21D;69555;53.014;8.886;2023-04-24T04:23:47;11.03;78.30
34145;HTU21D;69555;53.014;8.886;2023-04-24T04:26:14;11.09;79.10
34145;HTU21D;69555;53.014;8.886;2023-04-24T04:28:41;11.10;78.14
34145;HTU21D;69555;53.014;8.886;2023-04-24T04:31:06;11.14;77.96
34145;HTU21D;69555;53.014;8.886;2023-04-24T04:33:33;11.30;76.88
34145;HTU21D;69555;53.014;8.886;2023-04-24T04:35:58;11.73;75.51
34145;HTU21D;69555;53.014;8.886;2023-04-24T04:38:26;11.46;76.24
34145;HTU21D;69555;53.014;8.886;2023-04-24T04:40:56;11.17;77.04
34145;HTU21D;69555;53.014;8.886;2023-04-24T04:43:23;11.20;77.02
34145;HTU21D;69555;53.014;8.886;2023-04-24T04:45:51;11.15;77.42
34145;HTU21D;69555;53.014;8.886;2023-04-24T04:48:18;11.13;77.88
34145;HTU21D;69555;53.014;8.886;2023-04-24T04:50:44;11.12;77.66
34145;HTU21D;69555;53.014;8.886;2023-04-24T04:53:09;11.14;77.93
34145;HTU21D;69555;53.014;8.886;2023-04-24T04:55:36;11.09;78.08
34145;HTU21D;69555;53.014;8.886;2023-04-24T04:58:02;11.01;77.59
34145;HTU21D;69555;53.014;8.886;2023-04-24T05:00:29;11.00;78.14
34145;HTU21D;69555;53.014;8.886;2023-04-24T05:03:00;11.04;76.92
34145;HTU21D;69555;53.014;8.886;2023-04-24T05:05:27;10.97;78.26
34145;HTU21D;69555;53.014;8.886;2023-04-24T05:07:52;10.98;78.03
34145;HTU21D;69555;53.014;8.886;2023-04-24T05:10:19;10.97;77.93
34145;HTU21D;69555;53.014;8.886;2023-04-24T05:12:44;10.96;77.22
34145;HTU21D;69555;53.014;8.886;2023-04-24T05:15:10;10.92;77.01
34145;HTU21D;69555;53.014;8.886;2023-04-24T05:17:37;10.85;78.34
34145;HTU21D;69555;53.014;8.886;2023-04-24T05:20:04;10.86;78.13
34145;HTU21D;69555;53.014;8.886;2023-04-24T05:22:33;10.90;77.69
34145;HTU21D;69555;53.014;8.886;2023-04-24T05:24:59;10.94;78.07
34145;HTU21D;69555;53.014;8.886;2023-04-24T05:27:25;10.97;78.60
34145;HTU21D;69555;53.014;8.886;2023-04-24T05:29:51;10.97;77.85
34145;HTU21D;69555;53.014;8.886;2023-04-24T05:32:18;10.97;77.27
34145;HTU21D;69555;53.014;8.886;2023-04-24T05:34:43;11.07;77.59
34145;HTU21D;69555;53.014;8.886;2023-04-24T05:37:10;11.30;76.01
34145;HTU21D;69555;53.014;8.886;2023-04-24T05:39:37;11.33;76.32
34145;HTU21D;69555;53.014;8.886;2023-04-24T05:42:04;12.56;72.22
34145;HTU21D;69555;53.014;8.886;2023-04-24T05:44:31;14.33;65.14
34145;HTU21D;69555;53.014;8.886;2023-04-24T05:46:57;14.70;62.75
34145;HTU21D;69555;53.014;8.886;2023-04-24T05:49:24;15.41;61.57
34145;HTU21D;69555;53.014;8.886;2023-04-24T05:51:51;16.10;59.26
34145;HTU21D;69555;53.014;8.886;2023-04-24T05:54:16;14.87;62.40
34145;HTU21D;69555;53.014;8.886;2023-04-24T05:56:43;15.69;60.49
34145;HTU21D;69555;53.014;8.886;2023-04-24T05:59:08;15.88;60.06
34145;HTU21D;69555;53.014;8.886;2023-04-24T06:01:34;14.11;64.92
34145;HTU21D;69555;53.014;8.886;2023-04-24T06:04:00;13.45;67.02
34145;HTU21D;69555;53.014;8.886;2023-04-24T06:06:26;13.38;67.94
34145;HTU21D;69555;53.014;8.886;2023-04-24T06:08:53;13.54;67.40
34145;HTU21D;69555;53.014;8.886;2023-04-24T06:11:20;12.92;70.87
34145;HTU21D;69555;53.014;8.886;2023-04-24T06:13:47;12.31;72.59
34145;HTU21D;69555;53.014;8.886;2023-04-24T06:16:14;12.12;73.90
34145;HTU21D;69555;53.014;8.886;2023-04-24T06:18:40;11.72;74.08
34145;HTU21D;69555;53.014;8.886;2023-04-24T06:21:07;11.57;75.99
34145;HTU21D;69555;53.014;8.886;2023-04-24T06:23:32;11.54;75.52
34145;HTU21D;69555;53.014;8.886;2023-04-24T06:25:59;11.54;75.83
34145;HTU21D;69555;53.014;8.886;2023-04-24T06:28:25;11.45;76.66
34145;HTU21D;69555;53.014;8.886;2023-04-24T06:30:51;11.42;77.66
34145;HTU21D;69555;53.014;8.886;2023-04-24T06:33:17;11.33;76.19
34145;HTU21D;69555;53.014;8.886;2023-04-24T06:35:44;11.45;76.57
34145;HTU21D;69555;53.014;8.886;2023-04-24T06:38:09;11.74;76.05
34145;HTU21D;69555;53.014;8.886;2023-04-24T06:40:37;11.77;75.73
34145;HTU21D;69555;53.014;8.886;2023-04-24T06:43:02;11.77;75.73
34145;HTU21D;69555;53.014;8.886;2023-04-24T06:45:29;11.71;75.73
34145;HTU21D;69555;53.014;8.886;2023-04-24T06:47:55;11.73;76.33
34145;HTU21D;69555;53.014;8.886;2023-04-24T06:50:21;11.73;76.73
34145;HTU21D;69555;53.014;8.886;2023-04-24T06:52:47;11.77;76.42
34145;HTU21D;69555;53.014;8.886;2023-04-24T06:55:13;11.68;76.57
34145;HTU21D;69555;53.014;8.886;2023-04-24T06:57:41;11.49;77.81
34145;HTU21D;69555;53.014;8.886;2023-04-24T07:00:07;11.46;77.91
34145;HTU21D;69555;53.014;8.886;2023-04-24T07:02:35;11.37;77.56
34145;HTU21D;69555;53.014;8.886;2023-04-24T07:05:01;11.66;77.24
34145;HTU21D;69555;53.014;8.886;2023-04-24T07:07:27;11.63;76.67
34145;HTU21D;69555;53.014;8.886;2023-04-24T07:09:54;11.67;76.40
34145;HTU21D;69555;53.014;8.886;2023-04-24T07:12:21;11.61;76.59
34145;HTU21D;69555;53.014;8.886;2023-04-24T07:14:47;11.56;76.38
34145;HTU21D;69555;53.014;8.886;2023-04-24T07:17:14;11.53;76.99
34145;HTU21D;69555;53.014;8.886;2023-04-24T07:19:41;11.98;75.15
34145;HTU21D;69555;53.014;8.886;2023-04-24T07:22:07;11.86;75.67
34145;HTU21D;69555;53.014;8.886;2023-04-24T07:24:34;11.93;75.71
34145;HTU21D;69555;53.014;8.886;2023-04-24T07:27:01;11.87;75.25
34145;HTU21D;69555;53.014;8.886;2023-04-24T07:29:28;12.01;76.66
34145;HTU21D;69555;53.014;8.886;2023-04-24T07:31:53;11.83;75.67
34145;HTU21D;69555;53.014;8.886;2023-04-24T07:34:19;11.66;76.36
34145;HTU21D;69555;53.014;8.886;2023-04-24T07:36:45;11.70;76.22
34145;HTU21D;69555;53.014;8.886;2023-04-24T07:39:11;11.74;76.14
34145;HTU21D;69555;53.014;8.886;2023-04-24T07:41:37;11.89;74.95
34145;HTU21D;69555;53.014;8.886;2023-04-24T07:44:04;11.71;75.53
34145;HTU21D;69555;53.014;8.886;2023-04-24T07:46:31;11.88;75.08
34145;HTU21D;69555;53.014;8.886;2023-04-24T07:48:58;12.58;73.43
34145;HTU21D;69555;53.014;8.886;2023-04-24T07:51:25;12.49;73.59
34145;HTU21D;69555;53.014;8.886;2023-04-24T07:53:54;11.86;74.18
34145;HTU21D;69555;53.014;8.886;2023-04-24T07:56:23;11.86;73.63
34145;HTU21D;69555;53.014;8.886;2023-04-24T07:58:48;12.05;74.31
34145;HTU21D;69555;53.014;8.886;2023-04-24T08:01:15;11.73;75.03
34145;HTU21D;69555;53.014;8.886;2023-04-24T08:03:42;11.58;76.03
34145;HTU21D;69555;53.014;8.886;2023-04-24T08:06:08;11.58;76.44
34145;HTU21D;69555;53.014;8.886;2023-04-24T08:08:35;11.58;75.74
34145;HTU21D;69555;53.014;8.886;2023-04-24T08:11:01;11.48;75.49
34145;HTU21D;69555;53.014;8.886;2023-04-24T08:13:28;11.53;75.50
34145;HTU21D;69555;53.014;8.886;2023-04-24T08:15:56;11.69;74.89
34145;HTU21D;69555;53.014;8.886;2023-04-24T08:18:22;11.76;73.75
34145;HTU21D;69555;53.014;8.886;2023-04-24T08:20:49;12.01;73.56
34145;HTU21D;69555;53.014;8.886;2023-04-24T08:23:16;11.98;74.44
34145;HTU21D;69555;53.014;8.886;2023-04-24T08:25:42;11.70;74.61
34145;HTU21D;69555;53.014;8.886;2023-04-24T08:28:09;11.58;74.42
34145;HTU21D;69555;53.014;8.886;2023-04-24T08:30:36;11.60;74.87
34145;HTU21D;69555;53.014;8.886;2023-04-24T08:33:01;11.76;75.07
34145;HTU21D;69555;53.014;8.886;2023-04-24T08:35:26;11.67;74.98
34145;HTU21D;69555;53.014;8.886;2023-04-24T08:37:53;11.72;74.47
34145;HTU21D;69555;53.014;8.886;2023-04-24T08:40:23;11.88;73.54
34145;HTU21D;69555;53.014;8.886;2023-04-24T08:42:54;11.75;73.72
34145;HTU21D;69555;53.014;8.886;2023-04-24T08:45:20;11.88;74.17
34145;HTU21D;69555;53.014;8.886;2023-04-24T08:47:47;11.78;74.92
34145;HTU21D;69555;53.014;8.886;2023-04-24T08:50:14;11.83;74.91
34145;HTU21D;69555;53.014;8.886;2023-04-24T08:52:41;11.91;73.07
34145;HTU21D;69555;53.014;8.886;2023-04-24T08:55:09;12.32;72.87
34145;HTU21D;69555;53.014;8.886;2023-04-24T08:57:36;12.65;71.57
34145;HTU21D;69555;53.014;8.886;2023-04-24T09:00:04;12.59;71.35
34145;HTU21D;69555;53.014;8.886;2023-04-24T09:02:30;12.96;71.05
34145;HTU21D;69555;53.014;8.886;2023-04-24T09:04:57;12.78;71.33
34145;HTU21D;69555;53.014;8.886;2023-04-24T09:07:24;12.47;72.65
34145;HTU21D;69555;53.014;8.886;2023-04-24T09:09:51;12.13;72.03
34145;HTU21D;69555;53.014;8.886;2023-04-24T09:12:17;11.96;73.04
34145;HTU21D;69555;53.014;8.886;2023-04-24T09:14:45;11.76;74.38
34145;HTU21D;69555;53.014;8.886;2023-04-24T09:17:12;11.78;74.52
34145;HTU21D;69555;53.014;8.886;2023-04-24T09:19:40;11.94;74.09
34145;HTU21D;69555;53.014;8.886;2023-04-24T09:22:07;11.71;73.72
34145;HTU21D;69555;53.014;8.886;2023-04-24T09:24:35;11.69;73.28
34145;HTU21D;69555;53.014;8.886;2023-04-24T09:27:02;11.64;73.96
34145;HTU21D;69555;53.014;8.886;2023-04-24T09:29:30;11.67;74.16
34145;HTU21D;69555;53.014;8.886;2023-04-24T09:31:58;11.74;74.67
34145;HTU21D;69555;53.014;8.886;2023-04-24T09:34:27;11.68;73.34
34145;HTU21D;69555;53.014;8.886;2023-04-24T09:36:53;11.69;73.96
34145;HTU21D;69555;53.014;8.886;2023-04-24T09:39:19;11.79;72.93
34145;HTU21D;69555;53.014;8.886;2023-04-24T09:44:22;11.61;73.14
34145;HTU21D;69555;53.014;8.886;2023-04-24T09:46:56;11.63;73.09
34145;HTU21D;69555;53.014;8.886;2023-04-24T09:49:30;11.93;73.81
34145;HTU21D;69555;53.014;8.886;2023-04-24T09:52:05;12.35;71.60
34145;HTU21D;69555;53.014;8.886;2023-04-24T09:54:31;12.36;70.45
34145;HTU21D;69555;53.014;8.886;2023-04-24T09:56:56;12.71;70.57
34145;HTU21D;69555;53.014;8.886;2023-04-24T09:59:22;12.62;70.63
34145;HTU21D;69555;53.014;8.886;2023-04-24T10:01:49;12.67;69.65
34145;HTU21D;69555;53.014;8.886;2023-04-24T10:04:25;12.93;68.55
34145;HTU21D;69555;53.014;8.886;2023-04-24T10:06:54;13.29;67.39
34145;HTU21D;69555;53.014;8.886;2023-04-24T10:09:23;13.30;68.05
34145;HTU21D;69555;53.014;8.886;2023-04-24T10:11:51;13.37;67.07
34145;HTU21D;69555;53.014;8.886;2023-04-24T10:14:20;13.85;68.07
34145;HTU21D;69555;53.014;8.886;2023-04-24T10:16:48;13.77;67.84
34145;HTU21D;69555;53.014;8.886;2023-04-24T10:19:15;13.29;68.04
34145;HTU21D;69555;53.014;8.886;2023-04-24T10:21:43;12.64;69.71
34145;HTU21D;69555;53.014;8.886;2023-04-24T10:24:16;12.23;71.64
34145;HTU21D;69555;53.014;8.886;2023-04-24T10:26:44;11.71;72.79
34145;HTU21D;69555;53.014;8.886;2023-04-24T10:29:14;11.56;75.14
34145;HTU21D;69555;53.014;8.886;2023-04-24T10:31:42;11.45;76.75
34145;HTU21D;69555;53.014;8.886;2023-04-24T10:34:11;11.53;75.99
34145;HTU21D;69555;53.014;8.886;2023-04-24T10:36:46;11.46;77.28
34145;HTU21D;69555;53.014;8.886;2023-04-24T10:39:15;11.53;76.12
34145;HTU21D;69555;53.014;8.886;2023-04-24T10:41:41;11.56;75.21
34145;HTU21D;69555;53.014;8.886;2023-04-24T10:44:08;11.64;74.83
34145;HTU21D;69555;53.014;8.886;2023-04-24T10:46:35;11.87;74.66
34145;HTU21D;69555;53.014;8.886;2023-04-24T10:49:05;12.08;74.27
34145;HTU21D;69555;53.014;8.886;2023-04-24T10:51:51;12.27;72.92
34145;HTU21D;69555;53.014;8.886;2023-04-24T10:54:29;12.03;73.59
34145;HTU21D;69555;53.014;8.886;2023-04-24T10:59:49;11.91;74.08
34145;HTU21D;69555;53.014;8.886;2023-04-24T11:02:18;12.04;74.05
34145;HTU21D;69555;53.014;8.886;2023-04-24T11:05:05;12.07;73.91
34145;HTU21D;69555;53.014;8.886;2023-04-24T11:11:01;11.75;74.01
34145;HTU21D;69555;53.014;8.886;2023-04-24T11:22:04;12.38;71.45
34145;HTU21D;69555;53.014;8.886;2023-04-24T11:32:27;11.85;71.92
34145;HTU21D;69555;53.014;8.886;2023-04-24T11:35:39;12.13;72.19
34145;HTU21D;69555;53.014;8.886;2023-04-24T11:37:45;12.25;70.76
34145;HTU21D;69555;53.014;8.886;2023-04-24T11:40:13;12.36;71.41
34145;HTU21D;69555;53.014;8.886;2023-04-24T11:42:43;12.32;70.64
34145;HTU21D;69555;53.014;8.886;2023-04-24T11:45:12;12.25;71.74
34145;HTU21D;69555;53.014;8.886;2023-04-24T11:47:40;11.93;72.86
34145;HTU21D;69555;53.014;8.886;2023-04-24T11:50:11;11.85;72.82
34145;HTU21D;69555;53.014;8.886;2023-04-24T11:52:39;11.79;74.32
34145;HTU21D;69555;53.014;8.886;2023-04-24T11:55:26;11.75;74.71
34145;HTU21D;69555;53.014;8.886;2023-04-24T11:57:58;11.85;74.61
34145;HTU21D;69555;53.014;8.886;2023-04-24T12:00:29;11.85;73.81
34145;HTU21D;69555;53.014;8.886;2023-04-24T12:03:10;11.38;76.13
34145;HTU21D;69555;53.014;8.886;2023-04-24T12:05:38;11.31;75.81
34145;HTU21D;69555;53.014;8.886;2023-04-24T12:08:05;11.44;75.34
34145;HTU21D;69555;53.014;8.886;2023-04-24T12:10:33;11.66;75.77
34145;HTU21D;69555;53.014;8.886;2023-04-24T12:13:00;11.68;75.21
34145;HTU21D;69555;53.014;8.886;2023-04-24T12:15:27;11.70;74.46
34145;HTU21D;69555;53.014;8.886;2023-04-24T12:17:55;11.59;74.60
34145;HTU21D;69555;53.014;8.886;2023-04-24T12:20:31;11.59;75.07
34145;HTU21D;69555;53.014;8.886;2023-04-24T12:23:00;11.47;76.42
34145;HTU21D;69555;53.014;8.886;2023-04-24T12:25:29;11.14;78.02
34145;HTU21D;69555;53.014;8.886;2023-04-24T12:30:32;10.95;80.94
34145;HTU21D;69555;53.014;8.886;2023-04-24T12:32:59;10.87;81.73
34145;HTU21D;69555;53.014;8.886;2023-04-24T12:35:31;10.81;83.39
34145;HTU21D;69555;53.014;8.886;2023-04-24T12:38:15;10.57;85.52
34145;HTU21D;69555;53.014;8.886;2023-04-24T12:40:42;10.53;87.11
34145;HTU21D;69555;53.014;8.886;2023-04-24T12:43:20;10.59;88.00
34145;HTU21D;69555;53.014;8.886;2023-04-24T12:45:48;10.58;87.86
34145;HTU21D;69555;53.014;8.886;2023-04-24T12:48:15;10.82;88.12
34145;HTU21D;69555;53.014;8.886;2023-04-24T12:50:42;10.66;88.27
34145;HTU21D;69555;53.014;8.886;2023-04-24T12:53:08;10.70;89.28
34145;HTU21D;69555;53.014;8.886;2023-04-24T12:55:34;10.90;88.71
34145;HTU21D;69555;53.014;8.886;2023-04-24T12:58:00;10.93;89.31
34145;HTU21D;69555;53.014;8.886;2023-04-24T13:00:25;10.72;88.96
34145;HTU21D;69555;53.014;8.886;2023-04-24T13:02:51;10.73;91.15
34145;HTU21D;69555;53.014;8.886;2023-04-24T13:05:16;10.48;89.88
34145;HTU21D;69555;53.014;8.886;2023-04-24T13:07:42;10.16;90.79
34145;HTU21D;69555;53.014;8.886;2023-04-24T13:10:08;10.29;91.05
34145;HTU21D;69555;53.014;8.886;2023-04-24T13:12:34;10.16;92.21
34145;HTU21D;69555;53.014;8.886;2023-04-24T13:14:59;9.98;92.53
34145;HTU21D;69555;53.014;8.886;2023-04-24T13:17:25;9.68;91.24
34145;HTU21D;69555;53.014;8.886;2023-04-24T13:19:51;9.56;91.63
34145;HTU21D;69555;53.014;8.886;2023-04-24T13:22:17;9.50;92.39
34145;HTU21D;69555;53.014;8.886;2023-04-24T13:24:44;9.40;91.99
34145;HTU21D;69555;53.014;8.886;2023-04-24T13:27:09;9.46;93.11
34145;HTU21D;69555;53.014;8.886;2023-04-24T13:29:35;9.55;93.01
34145;HTU21D;69555;53.014;8.886;2023-04-24T13:32:00;9.48;92.04
34145;HTU21D;69555;53.014;8.886;2023-04-24T13:34:26;9.42;91.17
34145;HTU21D;69555;53.014;8.886;2023-04-24T13:36:53;9.34;90.77
34145;HTU21D;69555;53.014;8.886;2023-04-24T13:39:20;9.42;91.63
34145;HTU21D;69555;53.014;8.886;2023-04-24T13:41:45;9.49;91.95
34145;HTU21D;69555;53.014;8.886;2023-04-24T13:44:13;9.32;91.28
34145;HTU21D;69555;53.014;8.886;2023-04-24T13:46:39;9.22;91.31
34145;HTU21D;69555;53.014;8.886;2023-04-24T13:49:04;9.23;91.21
34145;HTU21D;69555;53.014;8.886;2023-04-24T13:51:30;9.11;90.98
34145;HTU21D;69555;53.014;8.886;2023-04-24T13:53:55;9.15;92.11
34145;HTU21D;69555;53.014;8.886;2023-04-24T13:56:22;9.10;92.16
34145;HTU21D;69555;53.014;8.886;2023-04-24T13:58:48;9.08;91.78
34145;HTU21D;69555;53.014;8.886;2023-04-24T14:01:15;8.95;91.62
34145;HTU21D;69555;53.014;8.886;2023-04-24T14:03:42;8.95;92.85
34145;HTU21D;69555;53.014;8.886;2023-04-24T14:06:08;8.95;92.96
34145;HTU21D;69555;53.014;8.886;2023-04-24T14:08:34;8.91;93.59
34145;HTU21D;69555;53.014;8.886;2023-04-24T14:11:00;9.06;93.49
34145;HTU21D;69555;53.014;8.886;2023-04-24T14:13:26;8.93;93.56
34145;HTU21D;69555;53.014;8.886;2023-04-24T14:15:52;9.03;92.37
34145;HTU21D;69555;53.014;8.886;2023-04-24T14:18:19;8.80;92.66
34145;HTU21D;69555;53.014;8.886;2023-04-24T14:20:45;8.93;91.77
34145;HTU21D;69555;53.014;8.886;2023-04-24T14:23:11;8.81;92.21
34145;HTU21D;69555;53.014;8.886;2023-04-24T14:25:38;8.89;91.42
34145;HTU21D;69555;53.014;8.886;2023-04-24T14:28:05;8.89;91.58
34145;HTU21D;69555;53.014;8.886;2023-04-24T14:30:31;8.89;92.19
34145;HTU21D;69555;53.014;8.886;2023-04-24T14:32:58;8.81;93.04
34145;HTU21D;69555;53.014;8.886;2023-04-24T14:35:24;8.87;91.99
34145;HTU21D;69555;53.014;8.886;2023-04-24T14:37:51;8.68;93.11
34145;HTU21D;69555;53.014;8.886;2023-04-24T14:40:18;8.88;91.93
34145;HTU21D;69555;53.014;8.886;2023-04-24T14:42:43;9.00;91.22
34145;HTU21D;69555;53.014;8.886;2023-04-24T14:45:09;8.75;92.06
34145;HTU21D;69555;53.014;8.886;2023-04-24T14:47:36;8.82;92.48
34145;HTU21D;69555;53.014;8.886;2023-04-24T14:50:03;8.77;92.37
34145;HTU21D;69555;53.014;8.886;2023-04-24T14:52:30;8.92;92.19
34145;HTU21D;69555;53.014;8.886;2023-04-24T14:54:56;9.00;92.21
34145;HTU21D;69555;53.014;8.886;2023-04-24T14:57:22;8.89;92.96
34145;HTU21D;69555;53.014;8.886;2023-04-24T14:59:49;9.05;91.99
34145;HTU21D;69555;53.014;8.886;2023-04-24T15:02:16;9.09;91.65
34145;HTU21D;69555;53.014;8.886;2023-04-24T15:04:42;9.09;90.99
34145;HTU21D;69555;53.014;8.886;2023-04-24T15:07:08;9.01;91.49
34145;HTU21D;69555;53.014;8.886;2023-04-24T15:09:33;9.03;91.24
34145;HTU21D;69555;53.014;8.886;2023-04-24T15:12:00;8.96;91.95
34145;HTU21D;69555;53.014;8.886;2023-04-24T15:14:27;9.14;90.85
34145;HTU21D;69555;53.014;8.886;2023-04-24T15:16:52;9.24;90.71
34145;HTU21D;69555;53.014;8.886;2023-04-24T15:19:18;9.29;91.23
34145;HTU21D;69555;53.014;8.886;2023-04-24T15:21:44;9.07;91.24
34145;HTU21D;69555;53.014;8.886;2023-04-24T15:24:11;9.26;91.00
34145;HTU21D;69555;53.014;8.886;2023-04-24T15:26:38;9.09;91.11
34145;HTU21D;69555;53.014;8.886;2023-04-24T15:29:05;9.20;91.07
34145;HTU21D;69555;53.014;8.886;2023-04-24T15:31:32;9.03;91.73
34145;HTU21D;69555;53.014;8.886;2023-04-24T15:33:57;9.04;91.19
34145;HTU21D;69555;53.014;8.886;2023-04-24T15:36:23;9.19;90.05
34145;HTU21D;69555;53.014;8.886;2023-04-24T15:38:49;9.21;91.21
34145;HTU21D;69555;53.014;8.886;2023-04-24T15:41:15;9.34;90.08
34145;HTU21D;69555;53.014;8.886;2023-04-24T15:43:41;9.24;89.60